CYRT

Details ICAO CYRT (YRT)
Name RANKIN INLET
Region Canada
Timezone America/Rankin_Inlet (UTC-6.0)
Plans Departing 19
Arriving 29
Stats Elevation 94 ft / 29 m (AMSL)
Location 62.811388° -92.115836°
Runways 1
Magnetic Variation 6.848° W
Sunrise 2017-12-13 15:36:15 UTC / 2017-12-13 09:36:15 Local
Sunset 2017-12-13 20:32:09 UTC / 2017-12-13 14:32:09 Local
Advertisement - Login to hide

Runways

ID Width Length Bearing (true) Bearing (mag) Surface Threshold Offset Overrun Length
13T 150 ft / 46 m 5,982 ft / 1,823 m 129.03° 135.88° Asphalt 0 ft / 0 m 0 ft / 0 m
31T 150 ft / 46 m 5,982 ft / 1,823 m 309.05° 315.90° Asphalt 0 ft / 0 m 0 ft / 0 m

Map

Weather


0- 5 10 15 20 25 30 35+ Temperature / ° C

Clouds and Precipitation
Forecast for 2017-12-13 18:00 UTC. Updated 17 minutes ago

Ground ~20,000 ft ~40,000 ft Winds

METAR

CYRT 131500Z 34015KT 15SM IC SCT015 M27/M30 A2993 RMK SC3 SLP143

TAF

TAF AMD CYRT 131303Z 1313/1324 35015KT P6SM IC SCT005 TEMPO 1313/1316 6SM IC BKN005 FM131600 34015KT P6SM SCT012 TEMPO 1316/1324 P6SM IC BKN012 RMK NXT FCST BY 131800Z

Frequencies

Tower 122.20 MHz MF RDO
Warning: Do not use this data for real-world aviation or navigation. No guarantee of current accuracy is given.